sensor_id;sensor_type;location;lat;lon;timestamp;P1;durP1;ratioP1;P2;durP2;ratioP2
26864;SDS011;40618;51.166;10.322;2023-12-07T00:01:28;7.20;;;6.13;;
26864;SDS011;40618;51.166;10.322;2023-12-07T00:03:54;10.60;;;7.50;;
26864;SDS011;40618;51.166;10.322;2023-12-07T00:06:19;9.20;;;7.25;;
26864;SDS011;40618;51.166;10.322;2023-12-07T00:08:45;9.77;;;7.45;;
26864;SDS011;40618;51.166;10.322;2023-12-07T00:11:11;10.40;;;7.68;;
26864;SDS011;40618;51.166;10.322;2023-12-07T00:13:36;8.43;;;7.55;;
26864;SDS011;40618;51.166;10.322;2023-12-07T00:16:02;11.43;;;8.60;;
26864;SDS011;40618;51.166;10.322;2023-12-07T00:18:28;9.60;;;7.80;;
26864;SDS011;40618;51.166;10.322;2023-12-07T00:20:53;10.70;;;7.82;;
26864;SDS011;40618;51.166;10.322;2023-12-07T00:23:19;9.57;;;8.13;;
26864;SDS011;40618;51.166;10.322;2023-12-07T00:25:44;10.80;;;8.25;;
26864;SDS011;40618;51.166;10.322;2023-12-07T00:28:11;9.05;;;7.65;;
26864;SDS011;40618;51.166;10.322;2023-12-07T00:30:36;9.30;;;7.72;;
26864;SDS011;40618;51.166;10.322;2023-12-07T00:33:02;9.73;;;7.38;;
26864;SDS011;40618;51.166;10.322;2023-12-07T00:35:28;11.52;;;7.80;;
26864;SDS011;40618;51.166;10.322;2023-12-07T00:37:54;10.35;;;7.82;;
26864;SDS011;40618;51.166;10.322;2023-12-07T00:40:21;9.85;;;7.82;;
26864;SDS011;40618;51.166;10.322;2023-12-07T00:42:48;9.75;;;8.10;;
26864;SDS011;40618;51.166;10.322;2023-12-07T00:45:13;9.93;;;8.25;;
26864;SDS011;40618;51.166;10.322;2023-12-07T00:47:39;10.38;;;8.38;;
26864;SDS011;40618;51.166;10.322;2023-12-07T00:50:05;10.45;;;8.23;;
26864;SDS011;40618;51.166;10.322;2023-12-07T00:52:31;10.68;;;8.32;;
26864;SDS011;40618;51.166;10.322;2023-12-07T00:54:57;10.45;;;8.65;;
26864;SDS011;40618;51.166;10.322;2023-12-07T00:57:23;11.30;;;8.73;;
26864;SDS011;40618;51.166;10.322;2023-12-07T00:59:48;11.55;;;8.23;;
26864;SDS011;40618;51.166;10.322;2023-12-07T01:02:14;11.02;;;7.85;;
26864;SDS011;40618;51.166;10.322;2023-12-07T01:04:39;10.20;;;8.05;;
26864;SDS011;40618;51.166;10.322;2023-12-07T01:07:05;10.13;;;8.20;;
26864;SDS011;40618;51.166;10.322;2023-12-07T01:09:31;12.77;;;9.15;;
26864;SDS011;40618;51.166;10.322;2023-12-07T01:11:58;13.35;;;8.80;;
26864;SDS011;40618;51.166;10.322;2023-12-07T01:14:23;10.13;;;8.48;;
26864;SDS011;40618;51.166;10.322;2023-12-07T01:16:49;14.35;;;8.10;;
26864;SDS011;40618;51.166;10.322;2023-12-07T01:19:15;9.48;;;7.82;;
26864;SDS011;40618;51.166;10.322;2023-12-07T01:21:41;11.38;;;8.13;;
26864;SDS011;40618;51.166;10.322;2023-12-07T01:24:07;10.43;;;7.85;;
26864;SDS011;40618;51.166;10.322;2023-12-07T01:26:34;12.52;;;7.68;;
26864;SDS011;40618;51.166;10.322;2023-12-07T01:29:00;14.05;;;8.63;;
26864;SDS011;40618;51.166;10.322;2023-12-07T01:31:26;11.60;;;8.32;;
26864;SDS011;40618;51.166;10.322;2023-12-07T01:33:51;12.82;;;8.65;;
26864;SDS011;40618;51.166;10.322;2023-12-07T01:36:17;9.75;;;8.00;;
26864;SDS011;40618;51.166;10.322;2023-12-07T01:38:42;12.07;;;8.73;;
26864;SDS011;40618;51.166;10.322;2023-12-07T01:41:11;11.02;;;8.23;;
26864;SDS011;40618;51.166;10.322;2023-12-07T01:43:37;10.40;;;7.78;;
26864;SDS011;40618;51.166;10.322;2023-12-07T01:46:09;14.10;;;9.07;;
26864;SDS011;40618;51.166;10.322;2023-12-07T01:48:35;13.10;;;9.32;;
26864;SDS011;40618;51.166;10.322;2023-12-07T01:51:00;11.90;;;8.07;;
26864;SDS011;40618;51.166;10.322;2023-12-07T01:53:26;12.05;;;8.48;;
26864;SDS011;40618;51.166;10.322;2023-12-07T01:55:53;11.07;;;8.40;;
26864;SDS011;40618;51.166;10.322;2023-12-07T01:58:20;10.40;;;8.68;;
26864;SDS011;40618;51.166;10.322;2023-12-07T02:00:46;11.70;;;8.38;;
26864;SDS011;40618;51.166;10.322;2023-12-07T02:03:13;10.70;;;7.97;;
26864;SDS011;40618;51.166;10.322;2023-12-07T02:05:41;11.05;;;8.55;;
26864;SDS011;40618;51.166;10.322;2023-12-07T02:10:36;11.13;;;7.75;;
26864;SDS011;40618;51.166;10.322;2023-12-07T02:13:02;10.10;;;8.10;;
26864;SDS011;40618;51.166;10.322;2023-12-07T02:15:28;11.68;;;8.25;;
26864;SDS011;40618;51.166;10.322;2023-12-07T02:18:01;10.30;;;8.35;;
26864;SDS011;40618;51.166;10.322;2023-12-07T02:23:34;11.27;;;8.68;;
26864;SDS011;40618;51.166;10.322;2023-12-07T02:26:22;13.10;;;8.50;;
26864;SDS011;40618;51.166;10.322;2023-12-07T02:28:57;13.63;;;9.43;;
26864;SDS011;40618;51.166;10.322;2023-12-07T02:31:22;12.75;;;9.63;;
26864;SDS011;40618;51.166;10.322;2023-12-07T02:33:48;12.50;;;9.68;;
26864;SDS011;40618;51.166;10.322;2023-12-07T02:36:15;14.18;;;10.18;;
26864;SDS011;40618;51.166;10.322;2023-12-07T02:41:12;12.07;;;8.77;;
26864;SDS011;40618;51.166;10.322;2023-12-07T02:43:39;13.75;;;8.63;;
26864;SDS011;40618;51.166;10.322;2023-12-07T02:46:05;13.20;;;9.30;;
26864;SDS011;40618;51.166;10.322;2023-12-07T02:48:31;13.77;;;9.73;;
26864;SDS011;40618;51.166;10.322;2023-12-07T02:50:56;12.57;;;9.63;;
26864;SDS011;40618;51.166;10.322;2023-12-07T02:53:22;16.05;;;10.18;;
26864;SDS011;40618;51.166;10.322;2023-12-07T02:55:48;15.02;;;10.15;;
26864;SDS011;40618;51.166;10.322;2023-12-07T02:58:13;14.30;;;9.68;;
26864;SDS011;40618;51.166;10.322;2023-12-07T03:00:39;13.05;;;10.00;;
26864;SDS011;40618;51.166;10.322;2023-12-07T03:03:04;14.90;;;10.57;;
26864;SDS011;40618;51.166;10.322;2023-12-07T03:05:30;14.88;;;10.15;;
26864;SDS011;40618;51.166;10.322;2023-12-07T03:07:55;14.95;;;10.00;;
26864;SDS011;40618;51.166;10.322;2023-12-07T03:10:21;12.65;;;9.40;;
26864;SDS011;40618;51.166;10.322;2023-12-07T03:12:47;13.32;;;10.15;;
26864;SDS011;40618;51.166;10.322;2023-12-07T03:15:12;13.75;;;9.70;;
26864;SDS011;40618;51.166;10.322;2023-12-07T03:17:38;14.18;;;10.80;;
26864;SDS011;40618;51.166;10.322;2023-12-07T03:20:04;13.32;;;9.77;;
26864;SDS011;40618;51.166;10.322;2023-12-07T03:22:30;13.32;;;10.43;;
26864;SDS011;40618;51.166;10.322;2023-12-07T03:24:56;13.15;;;10.48;;
26864;SDS011;40618;51.166;10.322;2023-12-07T03:27:22;17.88;;;10.75;;
26864;SDS011;40618;51.166;10.322;2023-12-07T03:29:47;12.73;;;9.25;;
26864;SDS011;40618;51.166;10.322;2023-12-07T03:32:13;12.80;;;9.52;;
26864;SDS011;40618;51.166;10.322;2023-12-07T03:34:39;11.60;;;9.20;;
26864;SDS011;40618;51.166;10.322;2023-12-07T03:37:04;11.77;;;9.70;;
26864;SDS011;40618;51.166;10.322;2023-12-07T03:39:30;12.68;;;9.95;;
26864;SDS011;40618;51.166;10.322;2023-12-07T03:41:57;13.50;;;10.20;;
26864;SDS011;40618;51.166;10.322;2023-12-07T03:44:23;13.52;;;10.13;;
26864;SDS011;40618;51.166;10.322;2023-12-07T03:46:48;14.05;;;10.07;;
26864;SDS011;40618;51.166;10.322;2023-12-07T03:49:14;13.73;;;10.35;;
26864;SDS011;40618;51.166;10.322;2023-12-07T03:51:40;12.23;;;10.18;;
26864;SDS011;40618;51.166;10.322;2023-12-07T03:54:06;13.90;;;9.65;;
26864;SDS011;40618;51.166;10.322;2023-12-07T03:56:32;14.75;;;11.55;;
26864;SDS011;40618;51.166;10.322;2023-12-07T03:58:58;14.13;;;10.93;;
26864;SDS011;40618;51.166;10.322;2023-12-07T04:01:24;19.02;;;10.48;;
26864;SDS011;40618;51.166;10.322;2023-12-07T04:03:54;13.73;;;10.82;;
26864;SDS011;40618;51.166;10.322;2023-12-07T04:06:22;15.05;;;10.60;;
26864;SDS011;40618;51.166;10.322;2023-12-07T04:08:49;18.17;;;12.82;;
26864;SDS011;40618;51.166;10.322;2023-12-07T04:11:15;14.15;;;11.43;;
26864;SDS011;40618;51.166;10.322;2023-12-07T04:13:42;15.43;;;11.05;;
26864;SDS011;40618;51.166;10.322;2023-12-07T04:16:08;17.42;;;11.65;;
26864;SDS011;40618;51.166;10.322;2023-12-07T04:18:34;17.35;;;12.15;;
26864;SDS011;40618;51.166;10.322;2023-12-07T04:21:00;13.65;;;11.10;;
26864;SDS011;40618;51.166;10.322;2023-12-07T04:23:26;13.88;;;10.60;;
26864;SDS011;40618;51.166;10.322;2023-12-07T04:25:52;14.82;;;11.10;;
26864;SDS011;40618;51.166;10.322;2023-12-07T04:28:17;17.02;;;11.45;;
26864;SDS011;40618;51.166;10.322;2023-12-07T04:30:43;16.70;;;12.40;;
26864;SDS011;40618;51.166;10.322;2023-12-07T04:33:09;16.85;;;12.40;;
26864;SDS011;40618;51.166;10.322;2023-12-07T04:35:34;16.80;;;12.30;;
26864;SDS011;40618;51.166;10.322;2023-12-07T04:38:00;15.15;;;11.30;;
26864;SDS011;40618;51.166;10.322;2023-12-07T04:40:27;16.60;;;11.52;;
26864;SDS011;40618;51.166;10.322;2023-12-07T04:42:53;14.35;;;10.82;;
26864;SDS011;40618;51.166;10.322;2023-12-07T04:45:19;16.23;;;11.60;;
26864;SDS011;40618;51.166;10.322;2023-12-07T04:47:45;15.48;;;10.85;;
26864;SDS011;40618;51.166;10.322;2023-12-07T04:50:11;13.70;;;11.00;;
26864;SDS011;40618;51.166;10.322;2023-12-07T04:52:36;14.65;;;11.52;;
26864;SDS011;40618;51.166;10.322;2023-12-07T04:55:03;16.60;;;11.57;;
26864;SDS011;40618;51.166;10.322;2023-12-07T04:57:31;15.10;;;12.45;;
26864;SDS011;40618;51.166;10.322;2023-12-07T05:00:00;15.00;;;11.27;;
26864;SDS011;40618;51.166;10.322;2023-12-07T05:02:31;16.02;;;11.95;;
26864;SDS011;40618;51.166;10.322;2023-12-07T05:04:57;14.57;;;11.55;;
26864;SDS011;40618;51.166;10.322;2023-12-07T05:07:23;15.25;;;10.93;;
26864;SDS011;40618;51.166;10.322;2023-12-07T05:09:49;13.40;;;11.25;;
26864;SDS011;40618;51.166;10.322;2023-12-07T05:12:18;15.25;;;11.98;;
26864;SDS011;40618;51.166;10.322;2023-12-07T05:14:43;15.80;;;11.77;;
26864;SDS011;40618;51.166;10.322;2023-12-07T05:17:09;16.80;;;11.60;;
26864;SDS011;40618;51.166;10.322;2023-12-07T05:19:35;14.93;;;11.43;;
26864;SDS011;40618;51.166;10.322;2023-12-07T05:22:00;15.60;;;12.07;;
26864;SDS011;40618;51.166;10.322;2023-12-07T05:24:27;16.92;;;11.80;;
26864;SDS011;40618;51.166;10.322;2023-12-07T05:26:53;14.57;;;10.50;;
26864;SDS011;40618;51.166;10.322;2023-12-07T05:29:19;14.07;;;10.68;;
26864;SDS011;40618;51.166;10.322;2023-12-07T05:31:44;15.00;;;11.18;;
26864;SDS011;40618;51.166;10.322;2023-12-07T05:34:13;20.08;;;11.93;;
26864;SDS011;40618;51.166;10.322;2023-12-07T05:36:38;15.98;;;11.95;;
26864;SDS011;40618;51.166;10.322;2023-12-07T05:39:04;15.02;;;11.77;;
26864;SDS011;40618;51.166;10.322;2023-12-07T05:41:32;15.05;;;12.35;;
26864;SDS011;40618;51.166;10.322;2023-12-07T05:43:58;14.43;;;11.63;;
26864;SDS011;40618;51.166;10.322;2023-12-07T05:46:23;15.25;;;11.88;;
26864;SDS011;40618;51.166;10.322;2023-12-07T05:48:49;16.33;;;12.13;;
26864;SDS011;40618;51.166;10.322;2023-12-07T05:51:17;14.80;;;10.70;;
26864;SDS011;40618;51.166;10.322;2023-12-07T05:56:11;14.27;;;10.57;;
26864;SDS011;40618;51.166;10.322;2023-12-07T05:58:37;15.55;;;12.18;;
26864;SDS011;40618;51.166;10.322;2023-12-07T06:01:03;15.70;;;11.85;;
26864;SDS011;40618;51.166;10.322;2023-12-07T06:03:30;18.38;;;12.77;;
26864;SDS011;40618;51.166;10.322;2023-12-07T06:05:56;16.10;;;11.80;;
26864;SDS011;40618;51.166;10.322;2023-12-07T06:08:24;18.90;;;12.48;;
26864;SDS011;40618;51.166;10.322;2023-12-07T06:10:50;15.95;;;12.32;;
26864;SDS011;40618;51.166;10.322;2023-12-07T06:13:15;17.20;;;11.32;;
26864;SDS011;40618;51.166;10.322;2023-12-07T06:15:41;15.77;;;11.75;;
26864;SDS011;40618;51.166;10.322;2023-12-07T06:18:07;19.08;;;12.80;;
26864;SDS011;40618;51.166;10.322;2023-12-07T06:20:33;17.55;;;11.43;;
26864;SDS011;40618;51.166;10.322;2023-12-07T06:23:00;18.63;;;12.35;;
26864;SDS011;40618;51.166;10.322;2023-12-07T06:25:26;15.15;;;11.88;;
26864;SDS011;40618;51.166;10.322;2023-12-07T06:27:52;14.68;;;10.80;;
26864;SDS011;40618;51.166;10.322;2023-12-07T06:30:18;18.77;;;11.95;;
26864;SDS011;40618;51.166;10.322;2023-12-07T06:32:44;14.65;;;11.55;;
26864;SDS011;40618;51.166;10.322;2023-12-07T06:35:12;16.83;;;11.70;;
26864;SDS011;40618;51.166;10.322;2023-12-07T06:37:38;17.45;;;12.45;;
26864;SDS011;40618;51.166;10.322;2023-12-07T06:40:06;16.65;;;11.85;;
26864;SDS011;40618;51.166;10.322;2023-12-07T06:42:35;15.55;;;11.30;;
26864;SDS011;40618;51.166;10.322;2023-12-07T06:45:01;16.52;;;12.15;;
26864;SDS011;40618;51.166;10.322;2023-12-07T06:47:28;17.58;;;12.80;;
26864;SDS011;40618;51.166;10.322;2023-12-07T06:49:54;18.02;;;12.52;;
26864;SDS011;40618;51.166;10.322;2023-12-07T06:52:20;17.05;;;12.77;;
26864;SDS011;40618;51.166;10.322;2023-12-07T06:54:46;17.42;;;12.80;;
26864;SDS011;40618;51.166;10.322;2023-12-07T06:57:12;16.65;;;12.80;;
26864;SDS011;40618;51.166;10.322;2023-12-07T06:59:38;18.73;;;12.80;;
26864;SDS011;40618;51.166;10.322;2023-12-07T07:02:05;17.42;;;13.35;;
26864;SDS011;40618;51.166;10.322;2023-12-07T07:04:31;17.83;;;13.65;;
26864;SDS011;40618;51.166;10.322;2023-12-07T07:06:57;18.10;;;12.93;;
26864;SDS011;40618;51.166;10.322;2023-12-07T07:09:22;17.10;;;12.30;;
26864;SDS011;40618;51.166;10.322;2023-12-07T07:11:48;15.60;;;11.63;;
26864;SDS011;40618;51.166;10.322;2023-12-07T07:14:14;15.32;;;11.05;;
26864;SDS011;40618;51.166;10.322;2023-12-07T07:16:40;15.35;;;11.90;;
26864;SDS011;40618;51.166;10.322;2023-12-07T07:19:06;15.27;;;11.60;;
26864;SDS011;40618;51.166;10.322;2023-12-07T07:21:32;17.38;;;11.85;;
26864;SDS011;40618;51.166;10.322;2023-12-07T07:23:57;15.23;;;11.55;;
26864;SDS011;40618;51.166;10.322;2023-12-07T07:26:23;16.08;;;12.18;;
26864;SDS011;40618;51.166;10.322;2023-12-07T07:28:50;15.60;;;12.20;;
26864;SDS011;40618;51.166;10.322;2023-12-07T07:31:17;16.25;;;12.43;;
26864;SDS011;40618;51.166;10.322;2023-12-07T07:33:43;15.18;;;11.57;;
26864;SDS011;40618;51.166;10.322;2023-12-07T07:36:09;17.83;;;12.15;;
26864;SDS011;40618;51.166;10.322;2023-12-07T07:38:36;21.13;;;14.07;;
26864;SDS011;40618;51.166;10.322;2023-12-07T07:41:03;18.40;;;12.88;;
26864;SDS011;40618;51.166;10.322;2023-12-07T07:43:29;16.90;;;12.23;;
26864;SDS011;40618;51.166;10.322;2023-12-07T07:45:54;16.90;;;12.50;;
26864;SDS011;40618;51.166;10.322;2023-12-07T07:48:21;18.63;;;12.73;;
26864;SDS011;40618;51.166;10.322;2023-12-07T07:50:46;17.73;;;13.18;;
26864;SDS011;40618;51.166;10.322;2023-12-07T07:53:12;29.83;;;17.60;;
26864;SDS011;40618;51.166;10.322;2023-12-07T07:55:38;25.92;;;15.85;;
26864;SDS011;40618;51.166;10.322;2023-12-07T07:58:04;19.40;;;12.80;;
26864;SDS011;40618;51.166;10.322;2023-12-07T08:00:29;17.45;;;12.48;;
26864;SDS011;40618;51.166;10.322;2023-12-07T08:02:57;20.27;;;13.30;;
26864;SDS011;40618;51.166;10.322;2023-12-07T08:05:23;27.23;;;15.40;;
26864;SDS011;40618;51.166;10.322;2023-12-07T08:07:48;39.58;;;20.13;;
26864;SDS011;40618;51.166;10.322;2023-12-07T08:10:14;42.30;;;20.02;;
26864;SDS011;40618;51.166;10.322;2023-12-07T08:12:41;24.75;;;15.00;;
26864;SDS011;40618;51.166;10.322;2023-12-07T08:15:06;39.17;;;20.35;;
26864;SDS011;40618;51.166;10.322;2023-12-07T08:17:36;46.45;;;23.15;;
26864;SDS011;40618;51.166;10.322;2023-12-07T08:20:05;27.75;;;16.38;;
26864;SDS011;40618;51.166;10.322;2023-12-07T08:22:36;51.42;;;25.05;;
26864;SDS011;40618;51.166;10.322;2023-12-07T08:25:03;44.58;;;24.02;;
26864;SDS011;40618;51.166;10.322;2023-12-07T08:27:31;50.45;;;25.38;;
26864;SDS011;40618;51.166;10.322;2023-12-07T08:29:58;52.67;;;25.30;;
26864;SDS011;40618;51.166;10.322;2023-12-07T08:32:24;48.53;;;24.60;;
26864;SDS011;40618;51.166;10.322;2023-12-07T08:34:51;52.70;;;26.88;;
26864;SDS011;40618;51.166;10.322;2023-12-07T08:37:17;47.25;;;27.90;;
26864;SDS011;40618;51.166;10.322;2023-12-07T08:39:43;66.22;;;33.83;;
26864;SDS011;40618;51.166;10.322;2023-12-07T08:42:09;76.78;;;38.97;;
26864;SDS011;40618;51.166;10.322;2023-12-07T08:44:35;74.15;;;38.70;;
26864;SDS011;40618;51.166;10.322;2023-12-07T08:47:01;59.00;;;30.40;;
26864;SDS011;40618;51.166;10.322;2023-12-07T08:49:27;42.95;;;25.20;;
26864;SDS011;40618;51.166;10.322;2023-12-07T08:51:53;41.25;;;25.95;;
26864;SDS011;40618;51.166;10.322;2023-12-07T08:54:18;39.80;;;25.45;;
26864;SDS011;40618;51.166;10.322;2023-12-07T08:56:44;82.35;;;41.10;;
26864;SDS011;40618;51.166;10.322;2023-12-07T08:59:10;70.78;;;37.55;;
26864;SDS011;40618;51.166;10.322;2023-12-07T09:01:36;73.63;;;37.92;;
26864;SDS011;40618;51.166;10.322;2023-12-07T09:04:02;66.07;;;36.10;;
26864;SDS011;40618;51.166;10.322;2023-12-07T09:06:28;54.05;;;30.05;;
26864;SDS011;40618;51.166;10.322;2023-12-07T09:08:54;40.72;;;24.40;;
26864;SDS011;40618;51.166;10.322;2023-12-07T09:11:20;40.20;;;24.73;;
26864;SDS011;40618;51.166;10.322;2023-12-07T09:13:46;40.90;;;23.95;;
26864;SDS011;40618;51.166;10.322;2023-12-07T09:16:12;31.98;;;20.55;;
26864;SDS011;40618;51.166;10.322;2023-12-07T09:18:38;39.17;;;23.00;;
26864;SDS011;40618;51.166;10.322;2023-12-07T09:21:03;38.17;;;22.40;;
26864;SDS011;40618;51.166;10.322;2023-12-07T09:23:29;34.88;;;19.88;;
26864;SDS011;40618;51.166;10.322;2023-12-07T09:25:56;25.90;;;16.98;;
26864;SDS011;40618;51.166;10.322;2023-12-07T09:28:22;29.38;;;18.20;;
26864;SDS011;40618;51.166;10.322;2023-12-07T09:30:48;25.98;;;17.08;;
26864;SDS011;40618;51.166;10.322;2023-12-07T09:33:14;29.98;;;18.50;;
26864;SDS011;40618;51.166;10.322;2023-12-07T09:35:40;29.23;;;17.40;;
26864;SDS011;40618;51.166;10.322;2023-12-07T09:38:05;23.15;;;16.02;;
26864;SDS011;40618;51.166;10.322;2023-12-07T09:40:32;21.95;;;14.13;;
26864;SDS011;40618;51.166;10.322;2023-12-07T09:42:57;22.98;;;15.70;;
26864;SDS011;40618;51.166;10.322;2023-12-07T09:45:23;21.08;;;15.18;;
26864;SDS011;40618;51.166;10.322;2023-12-07T09:47:50;19.88;;;13.55;;
26864;SDS011;40618;51.166;10.322;2023-12-07T09:50:18;17.13;;;12.40;;
26864;SDS011;40618;51.166;10.322;2023-12-07T09:52:56;16.92;;;13.23;;
26864;SDS011;40618;51.166;10.322;2023-12-07T09:55:24;19.88;;;13.38;;
26864;SDS011;40618;51.166;10.322;2023-12-07T09:57:50;17.58;;;13.07;;
26864;SDS011;40618;51.166;10.322;2023-12-07T10:00:16;18.27;;;12.82;;
26864;SDS011;40618;51.166;10.322;2023-12-07T10:02:45;19.70;;;14.27;;
26864;SDS011;40618;51.166;10.322;2023-12-07T10:05:12;21.27;;;14.02;;
26864;SDS011;40618;51.166;10.322;2023-12-07T10:07:41;18.98;;;13.95;;
26864;SDS011;40618;51.166;10.322;2023-12-07T10:10:14;21.63;;;15.05;;
26864;SDS011;40618;51.166;10.322;2023-12-07T10:13:02;26.38;;;18.23;;
26864;SDS011;40618;51.166;10.322;2023-12-07T10:15:27;25.85;;;15.95;;
26864;SDS011;40618;51.166;10.322;2023-12-07T10:17:57;21.25;;;14.30;;
26864;SDS011;40618;51.166;10.322;2023-12-07T10:20:25;25.02;;;16.52;;
26864;SDS011;40618;51.166;10.322;2023-12-07T10:23:03;21.08;;;14.82;;
26864;SDS011;40618;51.166;10.322;2023-12-07T10:25:41;23.23;;;14.73;;
26864;SDS011;40618;51.166;10.322;2023-12-07T10:28:08;20.85;;;14.77;;
26864;SDS011;40618;51.166;10.322;2023-12-07T10:30:36;19.08;;;14.10;;
26864;SDS011;40618;51.166;10.322;2023-12-07T10:33:04;19.17;;;13.73;;
26864;SDS011;40618;51.166;10.322;2023-12-07T10:35:32;22.05;;;15.75;;
26864;SDS011;40618;51.166;10.322;2023-12-07T10:37:57;19.05;;;14.30;;
26864;SDS011;40618;51.166;10.322;2023-12-07T10:40:23;19.55;;;12.82;;
26864;SDS011;40618;51.166;10.322;2023-12-07T10:42:49;18.30;;;12.80;;
26864;SDS011;40618;51.166;10.322;2023-12-07T10:45:25;18.80;;;13.00;;
26864;SDS011;40618;51.166;10.322;2023-12-07T10:48:01;18.15;;;12.38;;
26864;SDS011;40618;51.166;10.322;2023-12-07T10:50:34;20.08;;;13.30;;
26864;SDS011;40618;51.166;10.322;2023-12-07T10:53:28;19.55;;;13.60;;
26864;SDS011;40618;51.166;10.322;2023-12-07T10:56:01;23.38;;;14.45;;
26864;SDS011;40618;51.166;10.322;2023-12-07T10:58:27;20.50;;;13.45;;
26864;SDS011;40618;51.166;10.322;2023-12-07T11:00:53;18.02;;;12.82;;
26864;SDS011;40618;51.166;10.322;2023-12-07T11:03:19;19.20;;;14.15;;
26864;SDS011;40618;51.166;10.322;2023-12-07T11:05:47;16.90;;;11.63;;
26864;SDS011;40618;51.166;10.322;2023-12-07T11:08:28;19.67;;;13.00;;
26864;SDS011;40618;51.166;10.322;2023-12-07T11:13:52;17.92;;;12.18;;
26864;SDS011;40618;51.166;10.322;2023-12-07T11:16:37;16.48;;;12.50;;
26864;SDS011;40618;51.166;10.322;2023-12-07T11:19:23;16.50;;;11.93;;
26864;SDS011;40618;51.166;10.322;2023-12-07T11:21:57;16.52;;;11.57;;
26864;SDS011;40618;51.166;10.322;2023-12-07T11:24:25;19.92;;;12.25;;
26864;SDS011;40618;51.166;10.322;2023-12-07T11:26:54;16.67;;;12.00;;
26864;SDS011;40618;51.166;10.322;2023-12-07T11:29:20;22.25;;;14.73;;
26864;SDS011;40618;51.166;10.322;2023-12-07T11:31:49;15.73;;;11.73;;
26864;SDS011;40618;51.166;10.322;2023-12-07T11:37:06;19.70;;;13.27;;
26864;SDS011;40618;51.166;10.322;2023-12-07T11:39:39;20.13;;;14.15;;
26864;SDS011;40618;51.166;10.322;2023-12-07T11:42:13;18.98;;;13.43;;
26864;SDS011;40618;51.166;10.322;2023-12-07T11:44:42;19.65;;;12.32;;
26864;SDS011;40618;51.166;10.322;2023-12-07T11:47:15;20.42;;;14.65;;
26864;SDS011;40618;51.166;10.322;2023-12-07T11:49:43;22.27;;;13.45;;
26864;SDS011;40618;51.166;10.322;2023-12-07T11:54:50;19.67;;;13.57;;
26864;SDS011;40618;51.166;10.322;2023-12-07T11:57:16;18.35;;;12.43;;
26864;SDS011;40618;51.166;10.322;2023-12-07T11:59:44;21.30;;;12.30;;
26864;SDS011;40618;51.166;10.322;2023-12-07T12:02:10;24.73;;;15.52;;
26864;SDS011;40618;51.166;10.322;2023-12-07T12:04:37;20.70;;;13.77;;
26864;SDS011;40618;51.166;10.322;2023-12-07T12:07:03;17.92;;;13.15;;
26864;SDS011;40618;51.166;10.322;2023-12-07T12:09:29;19.15;;;12.65;;
26864;SDS011;40618;51.166;10.322;2023-12-07T12:11:56;19.23;;;12.07;;
26864;SDS011;40618;51.166;10.322;2023-12-07T12:14:25;22.13;;;14.20;;
26864;SDS011;40618;51.166;10.322;2023-12-07T12:16:52;18.20;;;12.82;;
26864;SDS011;40618;51.166;10.322;2023-12-07T12:19:18;18.85;;;13.10;;
26864;SDS011;40618;51.166;10.322;2023-12-07T12:21:44;15.65;;;11.18;;
26864;SDS011;40618;51.166;10.322;2023-12-07T12:24:11;29.70;;;16.98;;
26864;SDS011;40618;51.166;10.322;2023-12-07T12:26:37;32.40;;;19.63;;
26864;SDS011;40618;51.166;10.322;2023-12-07T12:29:07;31.50;;;18.92;;
26864;SDS011;40618;51.166;10.322;2023-12-07T12:31:37;25.85;;;16.30;;
26864;SDS011;40618;51.166;10.322;2023-12-07T12:34:06;22.52;;;14.15;;
26864;SDS011;40618;51.166;10.322;2023-12-07T12:36:33;14.93;;;10.93;;
26864;SDS011;40618;51.166;10.322;2023-12-07T12:39:00;17.83;;;13.73;;
26864;SDS011;40618;51.166;10.322;2023-12-07T12:41:27;17.42;;;11.73;;
26864;SDS011;40618;51.166;10.322;2023-12-07T12:43:55;16.95;;;11.07;;
26864;SDS011;40618;51.166;10.322;2023-12-07T12:46:22;14.05;;;10.27;;
26864;SDS011;40618;51.166;10.322;2023-12-07T12:48:58;15.57;;;11.38;;
26864;SDS011;40618;51.166;10.322;2023-12-07T12:51:26;14.18;;;10.02;;
26864;SDS011;40618;51.166;10.322;2023-12-07T12:53:56;13.38;;;10.63;;
26864;SDS011;40618;51.166;10.322;2023-12-07T12:56:24;20.15;;;12.95;;
26864;SDS011;40618;51.166;10.322;2023-12-07T12:58:53;19.85;;;13.40;;
26864;SDS011;40618;51.166;10.322;2023-12-07T13:01:22;13.05;;;10.18;;
26864;SDS011;40618;51.166;10.322;2023-12-07T13:03:48;14.82;;;10.73;;
26864;SDS011;40618;51.166;10.322;2023-12-07T13:06:14;16.05;;;11.25;;
26864;SDS011;40618;51.166;10.322;2023-12-07T13:08:43;15.43;;;10.57;;
26864;SDS011;40618;51.166;10.322;2023-12-07T13:11:09;14.40;;;9.82;;
26864;SDS011;40618;51.166;10.322;2023-12-07T13:13:39;13.60;;;9.88;;
26864;SDS011;40618;51.166;10.322;2023-12-07T13:16:06;13.55;;;8.95;;
26864;SDS011;40618;51.166;10.322;2023-12-07T13:18:31;12.18;;;8.32;;
26864;SDS011;40618;51.166;10.322;2023-12-07T13:20:57;11.88;;;8.80;;
26864;SDS011;40618;51.166;10.322;2023-12-07T13:23:24;13.30;;;9.05;;
26864;SDS011;40618;51.166;10.322;2023-12-07T13:25:51;10.95;;;8.25;;
26864;SDS011;40618;51.166;10.322;2023-12-07T13:28:17;12.15;;;8.98;;
26864;SDS011;40618;51.166;10.322;2023-12-07T13:30:42;11.38;;;8.60;;
26864;SDS011;40618;51.166;10.322;2023-12-07T13:33:09;16.27;;;8.65;;
26864;SDS011;40618;51.166;10.322;2023-12-07T13:35:35;11.43;;;8.80;;
26864;SDS011;40618;51.166;10.322;2023-12-07T13:38:01;12.70;;;9.52;;
26864;SDS011;40618;51.166;10.322;2023-12-07T13:40:26;12.20;;;8.60;;
26864;SDS011;40618;51.166;10.322;2023-12-07T13:42:52;14.27;;;8.75;;
26864;SDS011;40618;51.166;10.322;2023-12-07T13:45:18;15.45;;;10.05;;
26864;SDS011;40618;51.166;10.322;2023-12-07T13:47:45;14.77;;;9.20;;
26864;SDS011;40618;51.166;10.322;2023-12-07T13:50:10;9.65;;;7.18;;
26864;SDS011;40618;51.166;10.322;2023-12-07T13:52:36;11.15;;;7.18;;
26864;SDS011;40618;51.166;10.322;2023-12-07T13:55:03;8.85;;;7.00;;
26864;SDS011;40618;51.166;10.322;2023-12-07T13:57:30;13.27;;;8.35;;
26864;SDS011;40618;51.166;10.322;2023-12-07T13:59:56;16.80;;;10.90;;
26864;SDS011;40618;51.166;10.322;2023-12-07T14:02:21;19.17;;;11.23;;
26864;SDS011;40618;51.166;10.322;2023-12-07T14:04:48;16.60;;;11.88;;
26864;SDS011;40618;51.166;10.322;2023-12-07T14:07:16;18.60;;;12.73;;
26864;SDS011;40618;51.166;10.322;2023-12-07T14:09:44;19.67;;;13.77;;
26864;SDS011;40618;51.166;10.322;2023-12-07T14:12:12;19.25;;;12.82;;
26864;SDS011;40618;51.166;10.322;2023-12-07T14:14:43;27.33;;;16.73;;
26864;SDS011;40618;51.166;10.322;2023-12-07T14:17:11;30.05;;;18.70;;
26864;SDS011;40618;51.166;10.322;2023-12-07T14:19:38;30.70;;;20.98;;
26864;SDS011;40618;51.166;10.322;2023-12-07T14:22:04;28.50;;;19.40;;
26864;SDS011;40618;51.166;10.322;2023-12-07T14:24:31;24.30;;;16.77;;
26864;SDS011;40618;51.166;10.322;2023-12-07T14:26:57;19.63;;;14.02;;
26864;SDS011;40618;51.166;10.322;2023-12-07T14:29:23;18.05;;;12.70;;
26864;SDS011;40618;51.166;10.322;2023-12-07T14:31:50;15.70;;;11.60;;